Main page
METAR-TAF:

METAR-TAF

Airports :

RAF Linton-on-Ouse

Linton-on-Ouse, England

latitude: 54-03N, longitude: 001-15W, elevation: 16 m

Current weather observation

The report was made 39 minutes ago, at 21:50 UTC
Wind 6 kt from the Northwest
Temperature 4°C
Humidity 87%
Pressure 1008 hPa
Visibility 10 km or more

METAR: EGXU 052150Z AUTO 31006KT 9999 SCT035/// BKN050/// 04/02 Q1008 RERA

Time: 23:29 (22:29 UTC)


TAF: missing

Weather observations and forecasts of more than 4000 airports (METAR and TAF reports).

The available stations are represented by yellow and red dots on the map.

Hover mouse over dot to see the name of the station.

Then click to see weather observations and forecasts.

To change the map : click on the green buttons with a black cross to zoom in, on the green button with a dash to zoom out, or on the green arrows for adjacent maps.


METAR-TAF: